Time;durP1;ratioP1;P1;durP2;ratioP2;P2;SDS_P1;SDS_P2;PMS_P1;PMS_P2;Temp;Humidity;BMP_temperature;BMP_pressure;BME280_temperature;BME280_humidity;BME280_pressure;Samples;Min_cycle;Max_cycle;Signal;HPM_P1;HPM_P2
2021/05/03 00:04:04;;;;;;;;;;;4.10;99.90;;;;;;10409764;28;19925;-87
2021/05/03 00:09:05;;;;;;;;;;;4.10;99.90;;;;;;10343801;28;19932;-87
2021/05/03 00:14:07;;;;;;;;;;;4.20;99.90;;;;;;10328591;28;19929;-87
2021/05/03 00:19:08;;;;;;;;;;;5.90;99.90;;;;;;10327743;28;19926;-87
2021/05/03 00:24:10;;;;;;;;;;;4.20;99.90;;;;;;10326900;28;20373;-87
2021/05/03 00:29:11;;;;;;;;;;;4.10;99.90;;;;;;10328471;28;19926;-87
2021/05/03 00:34:13;;;;;;;;;;;4.20;99.90;;;;;;10327735;28;19949;-87
2021/05/03 00:39:15;;;;;;;;;;;3.90;99.90;;;;;;10329416;28;19925;-87
2021/05/03 00:44:16;;;;;;;;;;;3.90;99.90;;;;;;10327500;28;19926;-87
2021/05/03 00:49:17;;;;;;;;;;;5.70;99.90;;;;;;10343229;28;20577;-87
2021/05/03 00:54:19;;;;;;;;;;;5.80;99.90;;;;;;10342125;28;19930;-87
2021/05/03 00:59:21;;;;;;;;;;;2.40;99.90;;;;;;10326825;28;19930;-87
2021/05/03 01:16:09;;;;;;;;;;;3.50;99.90;;;;;;10482637;27;19928;-87
2021/05/03 01:21:11;;;;;;;;;;;3.70;99.90;;;;;;10392130;28;20012;-88
2021/05/03 01:26:12;;;;;;;;;;;3.60;99.90;;;;;;10375092;28;20020;-88
2021/05/03 01:31:14;;;;;;;;;;;4.70;99.90;;;;;;10380434;28;20321;-88
2021/05/03 01:36:15;;;;;;;;;;;3.60;99.90;;;;;;10414592;28;20012;-88
2021/05/03 01:41:17;;;;;;;;;;;4.40;99.90;;;;;;10398781;28;19933;-87
2021/05/03 01:46:19;;;;;;;;;;;5.50;99.90;;;;;;10414187;28;19925;-88
2021/05/03 01:51:20;;;;;;;;;;;3.40;99.90;;;;;;10415922;28;19931;-88
2021/05/03 01:56:23;;;;;;;;;;;3.30;99.90;;;;;;10399935;28;19925;-87
2021/05/03 02:01:25;;;;;;;;;;;3.90;99.90;;;;;;10415236;28;19929;-88
2021/05/03 02:06:26;;;;;;;;;;;4.60;99.90;;;;;;10397793;28;20020;-88
2021/05/03 02:11:27;;;;;;;;;;;3.60;99.90;;;;;;10413510;28;19947;-88
2021/05/03 02:16:29;;;;;;;;;;;3.50;99.90;;;;;;10396736;28;20364;-88
2021/05/03 02:21:30;;;;;;;;;;;3.60;99.90;;;;;;10413033;28;20356;-87
2021/05/03 02:26:31;;;;;;;;;;;3.70;99.90;;;;;;10414761;28;19932;-88
2021/05/03 02:31:32;;;;;;;;;;;3.40;99.90;;;;;;10396419;28;20372;-88
2021/05/03 02:36:34;;;;;;;;;;;4.60;99.90;;;;;;10396618;28;20415;-88
2021/05/03 02:41:35;;;;;;;;;;;3.10;99.90;;;;;;10395300;28;19929;-88
2021/05/03 02:46:36;;;;;;;;;;;3.80;99.90;;;;;;10412844;28;20423;-88
2021/05/03 02:51:38;;;;;;;;;;;3.10;99.90;;;;;;10396294;28;19964;-88
2021/05/03 02:56:40;;;;;;;;;;;4.50;99.90;;;;;;10412696;28;19926;-88
2021/05/03 03:01:41;;;;;;;;;;;3.30;99.90;;;;;;10379265;28;20438;-88
2021/05/03 03:06:42;;;;;;;;;;;3.00;99.90;;;;;;10379846;28;20019;-87
2021/05/03 03:11:46;;;;;;;;;;;3.00;99.90;;;;;;10413496;28;20012;-87
2021/05/03 03:16:48;;;;;;;;;;;3.00;99.90;;;;;;10395771;28;19925;-87
2021/05/03 03:21:49;;;;;;;;;;;4.10;99.90;;;;;;10394872;28;20407;-87
2021/05/03 03:26:50;;;;;;;;;;;3.70;99.90;;;;;;10395965;28;19925;-88
2021/05/03 03:31:51;;;;;;;;;;;3.50;99.90;;;;;;10411801;28;20009;-87
2021/05/03 03:36:53;;;;;;;;;;;3.60;99.90;;;;;;10410976;28;19925;-87
2021/05/03 03:41:54;;;;;;;;;;;2.90;99.90;;;;;;10378446;28;19932;-87
2021/05/03 03:46:55;;;;;;;;;;;2.80;99.90;;;;;;10395110;28;19925;-87
2021/05/03 03:51:57;;;;;;;;;;;2.90;99.90;;;;;;10393493;28;19925;-87
2021/05/03 03:56:58;;;;;;;;;;;4.80;99.90;;;;;;10411011;28;20016;-87
2021/05/03 04:01:59;;;;;;;;;;;3.00;99.90;;;;;;10393878;28;19925;-87
2021/05/03 04:07:30;;;;;;;;;;;5.20;99.90;;;;;;10393496;28;19948;-87
2021/05/03 04:28:18;;;;;;;;;;;3.50;99.90;;;;;;10393671;28;20287;-87
2021/05/03 04:33:20;;;;;;;;;;;4.70;99.90;;;;;;10393151;28;19975;-87
2021/05/03 04:38:21;;;;;;;;;;;3.60;99.90;;;;;;10393242;28;19925;-87
2021/05/03 04:43:22;;;;;;;;;;;3.70;99.90;;;;;;10394206;28;19925;-87
2021/05/03 04:48:23;;;;;;;;;;;5.10;99.90;;;;;;10392491;28;20458;-87
2021/05/03 04:53:25;;;;;;;;;;;5.60;99.90;;;;;;10409355;28;19936;-87
2021/05/03 04:58:26;;;;;;;;;;;4.50;99.90;;;;;;10393191;28;19932;-87
2021/05/03 05:03:27;;;;;;;;;;;4.60;99.90;;;;;;10394282;28;19925;-87
2021/05/03 05:08:29;;;;;;;;;;;4.70;99.90;;;;;;10399182;28;20025;-87
2021/05/03 05:13:30;;;;;;;;;;;5.90;99.90;;;;;;10399590;28;20019;-88
2021/05/03 05:18:31;;;;;;;;;;;5.70;99.90;;;;;;10382791;28;19932;-88
2021/05/03 05:23:33;;;;;;;;;;;4.10;99.90;;;;;;10398757;28;19932;-88
2021/05/03 05:28:34;;;;;;;;;;;7.70;99.90;;;;;;10398052;28;20346;-89
2021/05/03 05:33:36;;;;;;;;;;;5.70;99.90;;;;;;10415790;28;20295;-88
2021/05/03 05:38:38;;;;;;;;;;;5.00;99.90;;;;;;10416027;28;19925;-88
2021/05/03 05:43:40;;;;;;;;;;;5.10;99.90;;;;;;10394386;28;20395;-88
2021/05/03 05:48:41;;;;;;;;;;;7.90;99.90;;;;;;10414358;28;19951;-88
2021/05/03 05:53:42;;;;;;;;;;;5.50;99.90;;;;;;10397640;28;19925;-88
2021/05/03 05:58:44;;;;;;;;;;;6.80;99.90;;;;;;10412451;28;19925;-88
2021/05/03 06:03:45;;;;;;;;;;;6.00;99.90;;;;;;10397737;28;19926;-89
2021/05/03 06:08:47;;;;;;;;;;;5.90;99.90;;;;;;10398213;28;20007;-88
2021/05/03 06:13:49;;;;;;;;;;;6.10;99.90;;;;;;10414923;28;19932;-88
2021/05/03 06:18:50;;;;;;;;;;;6.70;99.90;;;;;;10414401;28;20376;-88
2021/05/03 06:23:51;;;;;;;;;;;8.20;99.90;;;;;;10397439;28;19925;-88
2021/05/03 06:28:53;;;;;;;;;;;6.40;99.90;;;;;;10413374;28;19925;-88
2021/05/03 06:33:54;;;;;;;;;;;6.50;99.90;;;;;;10397506;28;19936;-88
2021/05/03 06:38:56;;;;;;;;;;;8.20;99.90;;;;;;10396237;28;20438;-88
2021/05/03 06:43:58;;;;;;;;;;;7.20;99.90;;;;;;10396484;28;19925;-88
2021/05/03 06:48:59;;;;;;;;;;;8.20;99.90;;;;;;10413545;28;20280;-88
2021/05/03 06:54:00;;;;;;;;;;;7.50;99.90;;;;;;10396642;28;19925;-88
2021/05/03 06:59:02;;;;;;;;;;;7.60;99.90;;;;;;10412586;28;19932;-87
2021/05/03 07:28:11;;;;;;;;;;;10.20;97.50;;;;;;10529218;27;19924;-88
2021/05/03 07:33:12;;;;;;;;;;;10.70;96.70;;;;;;10584210;28;19927;-88
2021/05/03 07:38:14;;;;;;;;;;;11.10;96.60;;;;;;10586056;28;20003;-90
2021/05/03 07:43:16;;;;;;;;;;;11.20;95.30;;;;;;10602083;27;19931;-89
2021/05/03 07:48:18;;;;;;;;;;;11.90;94.40;;;;;;10627099;27;19923;-89
2021/05/03 07:53:19;;;;;;;;;;;12.40;93.50;;;;;;10632296;27;20352;-89
2021/05/03 07:58:20;;;;;;;;;;;12.40;91.80;;;;;;10627075;27;20011;-89
2021/05/03 08:03:22;;;;;;;;;;;12.40;92.40;;;;;;10608348;27;19929;-89
2021/05/03 08:08:23;;;;;;;;;;;12.90;92.00;;;;;;10625500;27;19924;-87
2021/05/03 08:13:27;;;;;;;;;;;12.70;90.90;;;;;;10607701;27;19931;-88
2021/05/03 08:18:29;;;;;;;;;;;12.50;88.20;;;;;;10625222;27;19923;-88
2021/05/03 08:23:30;;;;;;;;;;;12.50;87.80;;;;;;10607193;27;20374;-88
2021/05/03 08:28:31;;;;;;;;;;;13.90;86.40;;;;;;10606931;27;20282;-88
2021/05/03 08:33:33;;;;;;;;;;;14.80;81.70;;;;;;10625135;27;20263;-88
2021/05/03 08:38:35;;;;;;;;;;;15.10;84.80;;;;;;10606647;27;20442;-88
2021/05/03 08:43:40;;;;;;;;;;;15.80;74.80;;;;;;10587700;27;20389;-86
2021/05/03 08:48:53;;;;;;;;;;;14.90;79.00;;;;;;10581792;28;19939;-89
2021/05/03 08:54:01;;;;;;;;;;;15.60;74.30;;;;;;10564248;28;20356;-89
2021/05/03 08:59:03;;;;;;;;;;;15.90;72.20;;;;;;10593388;28;19958;-89
2021/05/03 09:04:04;;;;;;;;;;;15.90;67.30;;;;;;10628577;27;19939;-88
2021/05/03 09:09:07;;;;;;;;;;;15.40;71.90;;;;;;10622994;28;19951;-88
2021/05/03 09:14:09;;;;;;;;;;;14.90;70.30;;;;;;10620842;28;19975;-88
2021/05/03 09:19:11;;;;;;;;;;;15.50;68.40;;;;;;10620500;27;19934;-88
2021/05/03 09:24:16;;;;;;;;;;;16.10;66.20;;;;;;10577995;28;20374;-88
2021/05/03 09:29:43;;;;;;;;;;;15.70;67.60;;;;;;10602384;28;20382;-88
2021/05/03 09:34:45;;;;;;;;;;;16.70;68.00;;;;;;10590456;28;19928;-88
2021/05/03 09:39:51;;;;;;;;;;;16.90;64.40;;;;;;10604719;28;20683;-88
2021/05/03 09:45:09;;;;;;;;;;;16.80;71.20;;;;;;10583632;28;19928;-87
2021/05/03 09:50:16;;;;;;;;;;;16.80;63.20;;;;;;10622855;27;19977;-89
2021/05/03 09:55:31;;;;;;;;;;;17.30;65.50;;;;;;10633832;27;19959;-88
2021/05/03 10:00:34;;;;;;;;;;;16.30;63.70;;;;;;10630296;27;20005;-88
2021/05/03 10:05:35;;;;;;;;;;;16.10;66.60;;;;;;10629107;27;19923;-88
2021/05/03 10:10:39;;;;;;;;;;;15.90;63.30;;;;;;10612427;27;19924;-88
2021/05/03 10:15:41;;;;;;;;;;;15.90;64.60;;;;;;10629642;27;19927;-87
2021/05/03 10:20:42;;;;;;;;;;;16.80;63.50;;;;;;10617412;27;20046;-88
2021/05/03 10:25:44;;;;;;;;;;;17.20;60.60;;;;;;10586294;28;19928;-88
2021/05/03 10:30:48;;;;;;;;;;;16.50;61.40;;;;;;10586293;28;20347;-87
2021/05/03 10:35:50;;;;;;;;;;;16.30;62.70;;;;;;10585675;28;20014;-87
2021/05/03 10:40:52;;;;;;;;;;;16.40;61.50;;;;;;10585174;28;19930;-88
2021/05/03 10:51:28;;;;;;;;;;;16.50;58.50;;;;;;10630430;27;19930;-87
2021/05/03 10:56:39;;;;;;;;;;;16.40;60.30;;;;;;10598693;27;19930;-88
2021/05/03 11:01:55;;;;;;;;;;;15.40;59.50;;;;;;10614611;27;19923;-88
2021/05/03 11:06:57;;;;;;;;;;;16.00;62.00;;;;;;10609443;27;19923;-88
2021/05/03 11:11:58;;;;;;;;;;;15.10;62.00;;;;;;10609344;27;20424;-87
2021/05/03 11:17:09;;;;;;;;;;;14.80;60.30;;;;;;10627629;27;19930;-87
2021/05/03 11:22:19;;;;;;;;;;;15.00;60.40;;;;;;10626843;27;20298;-87
2021/05/03 11:27:38;;;;;;;;;;;14.10;62.40;;;;;;10610584;27;20010;-88
2021/05/03 11:32:40;;;;;;;;;;;16.00;61.20;;;;;;10533793;27;20018;-87
2021/05/03 11:37:42;;;;;;;;;;;15.10;58.50;;;;;;10627478;27;20322;-87
2021/05/03 11:48:03;;;;;;;;;;;14.80;63.50;;;;;;10610737;27;19963;-88
2021/05/03 11:53:05;;;;;;;;;;;15.00;61.50;;;;;;10588919;27;19928;-87
2021/05/03 11:58:07;;;;;;;;;;;15.40;60.40;;;;;;10582983;28;19930;-87
2021/05/03 12:03:12;;;;;;;;;;;15.30;62.80;;;;;;10495238;28;20014;-87
2021/05/03 12:08:14;;;;;;;;;;;15.00;58.60;;;;;;10495904;28;19930;-87
2021/05/03 12:13:19;;;;;;;;;;;14.90;60.10;;;;;;10495794;28;19928;-87
2021/05/03 12:18:22;;;;;;;;;;;14.90;60.30;;;;;;10583134;28;20378;-87
2021/05/03 12:23:23;;;;;;;;;;;15.00;62.90;;;;;;10480358;28;19930;-88
2021/05/03 12:28:27;;;;;;;;;;;15.10;57.60;;;;;;10585460;27;20416;-88
2021/05/03 12:33:28;;;;;;;;;;;15.30;57.30;;;;;;10663418;27;19929;-88
2021/05/03 12:38:30;;;;;;;;;;;16.10;55.80;;;;;;10668461;27;20262;-89
2021/05/03 12:43:38;;;;;;;;;;;15.40;54.40;;;;;;10640565;27;19970;-89
2021/05/03 12:48:54;;;;;;;;;;;15.50;58.30;;;;;;10605489;28;19928;-89
2021/05/03 13:04:27;;;;;;;;;;;14.40;58.30;;;;;;10624851;28;19927;-90
2021/05/03 13:28:00;;;;;;;;;;;15.60;55.00;;;;;;10329187;28;19926;-88
2021/05/03 13:30:55;;;;;;;;;;;15.60;57.00;;;;;;10406882;28;19929;-89
2021/05/03 13:35:56;;;;;;;;;;;15.10;53.50;;;;;;10478910;28;19929;-89
2021/05/03 13:40:58;;;;;;;;;;;15.10;54.70;;;;;;10460317;28;19925;-88
2021/05/03 13:45:59;;;;;;;;;;;15.50;54.90;;;;;;10355515;28;20364;-89
2021/05/03 13:51:01;;;;;;;;;;;15.80;52.30;;;;;;10356450;28;20291;-89
2021/05/03 13:56:03;;;;;;;;;;;15.80;53.10;;;;;;10356111;28;19925;-89
2021/05/03 14:01:05;;;;;;;;;;;15.60;53.90;;;;;;10506383;28;20294;-89
2021/05/03 14:06:07;;;;;;;;;;;15.90;50.20;;;;;;10550910;28;19924;-89
2021/05/03 14:11:08;;;;;;;;;;;16.40;51.10;;;;;;10567960;28;20019;-89
2021/05/03 14:16:10;;;;;;;;;;;16.50;49.30;;;;;;10460475;27;19925;-90
2021/05/03 14:21:13;;;;;;;;;;;16.50;52.20;;;;;;10453186;28;19931;-90
2021/05/03 14:26:17;;;;;;;;;;;16.10;50.40;;;;;;10588329;28;19966;-90
2021/05/03 14:31:26;;;;;;;;;;;15.80;49.70;;;;;;10571953;28;19978;-89
2021/05/03 14:36:28;;;;;;;;;;;16.10;48.40;;;;;;10555383;28;20010;-89
2021/05/03 14:41:29;;;;;;;;;;;16.40;46.30;;;;;;10553279;28;19924;-90
2021/05/03 14:46:41;;;;;;;;;;;16.70;48.30;;;;;;10527742;28;19925;-88
2021/05/03 14:56:45;;;;;;;;;;;14.10;46.80;;;;;;10481298;28;19925;-88
2021/05/03 15:01:46;;;;;;;;;;;16.10;47.90;;;;;;10503321;28;19928;-89
2021/05/03 15:06:49;;;;;;;;;;;16.00;47.50;;;;;;10457756;28;20735;-89
2021/05/03 15:11:53;;;;;;;;;;;16.20;47.40;;;;;;10469753;28;19929;-89
2021/05/03 15:17:23;;;;;;;;;;;15.50;45.60;;;;;;10419015;28;19930;-89
2021/05/03 15:22:25;;;;;;;;;;;15.80;48.80;;;;;;10454643;28;19932;-88
2021/05/03 15:33:54;;;;;;;;;;;15.60;49.30;;;;;;10584383;28;20007;-89
2021/05/03 15:38:25;;;;;;;;;;;15.30;52.50;;;;;;10479330;28;19946;-89
2021/05/03 15:43:28;;;;;;;;;;;14.90;50.50;;;;;;10477003;28;19929;-88
2021/05/03 15:48:30;;;;;;;;;;;14.60;49.50;;;;;;10370801;28;19925;-88
2021/05/03 15:53:32;;;;;;;;;;;14.70;52.00;;;;;;10377884;28;19926;-88
2021/05/03 15:58:33;;;;;;;;;;;14.90;50.60;;;;;;10438072;28;19925;-88
2021/05/03 16:03:35;;;;;;;;;;;15.10;50.50;;;;;;10457284;28;20398;-88
2021/05/03 16:08:37;;;;;;;;;;;15.20;53.10;;;;;;10479213;28;19937;-88
2021/05/03 16:13:39;;;;;;;;;;;15.00;48.20;;;;;;10479341;28;19925;-89
2021/05/03 16:18:44;;;;;;;;;;;14.90;49.40;;;;;;10410195;28;19925;-89
2021/05/03 16:23:45;;;;;;;;;;;14.70;52.80;;;;;;10477485;28;19925;-88
2021/05/03 16:28:46;;;;;;;;;;;14.60;51.30;;;;;;10478455;28;19933;-88
2021/05/03 16:33:49;;;;;;;;;;;14.50;50.40;;;;;;10475557;28;19926;-88
2021/05/03 16:38:50;;;;;;;;;;;14.60;52.70;;;;;;10375227;28;19926;-88
2021/05/03 16:43:51;;;;;;;;;;;14.70;55.30;;;;;;10553372;28;19930;-88
2021/05/03 16:48:54;;;;;;;;;;;14.80;52.80;;;;;;10442414;28;19937;-89
2021/05/03 16:53:55;;;;;;;;;;;14.50;52.50;;;;;;10367052;28;20008;-89
2021/05/03 16:58:57;;;;;;;;;;;14.40;53.50;;;;;;10446045;28;19952;-88
2021/05/03 17:03:58;;;;;;;;;;;14.20;51.10;;;;;;10471080;27;19926;-89
2021/05/03 17:08:59;;;;;;;;;;;14.10;52.60;;;;;;10443916;28;19926;-88
2021/05/03 17:14:01;;;;;;;;;;;14.10;52.10;;;;;;10444011;28;19932;-89
2021/05/03 17:19:04;;;;;;;;;;;14.00;51.90;;;;;;10459830;28;19926;-89
2021/05/03 17:24:06;;;;;;;;;;;14.00;53.20;;;;;;10459745;28;19932;-89
2021/05/03 17:29:07;;;;;;;;;;;13.80;52.70;;;;;;10460369;28;19936;-89
2021/05/03 17:34:08;;;;;;;;;;;13.80;55.00;;;;;;10443262;28;19926;-89
2021/05/03 17:39:11;;;;;;;;;;;13.70;53.70;;;;;;10442939;28;19926;-89
2021/05/03 17:44:12;;;;;;;;;;;13.60;55.50;;;;;;10458232;28;19997;-89
2021/05/03 17:49:14;;;;;;;;;;;13.60;55.60;;;;;;10435892;28;19932;-89
2021/05/03 17:54:16;;;;;;;;;;;13.40;54.90;;;;;;10439545;28;19926;-90
2021/05/03 17:59:18;;;;;;;;;;;13.50;54.20;;;;;;10436087;28;20486;-90
2021/05/03 18:04:19;;;;;;;;;;;13.30;55.80;;;;;;10442144;28;19999;-89
2021/05/03 18:09:20;;;;;;;;;;;13.30;55.50;;;;;;10443141;28;19926;-89
2021/05/03 18:14:26;;;;;;;;;;;13.20;57.10;;;;;;10375536;28;19947;-89
2021/05/03 18:19:34;;;;;;;;;;;13.20;55.90;;;;;;10442619;28;20746;-89
2021/05/03 18:24:36;;;;;;;;;;;13.10;59.30;;;;;;10399772;28;19932;-89
2021/05/03 18:29:38;;;;;;;;;;;13.00;59.60;;;;;;10456953;28;19969;-89
2021/05/03 18:34:39;;;;;;;;;;;13.00;59.00;;;;;;10373239;28;19925;-89
2021/05/03 18:39:41;;;;;;;;;;;12.80;60.30;;;;;;10440130;28;19925;-89
2021/05/03 18:44:42;;;;;;;;;;;12.80;60.70;;;;;;10440616;28;19932;-89
2021/05/03 18:49:49;;;;;;;;;;;12.80;61.80;;;;;;10439708;28;19948;-89
2021/05/03 18:54:50;;;;;;;;;;;12.70;63.50;;;;;;10372922;28;19926;-88
2021/05/03 18:59:51;;;;;;;;;;;12.50;67.20;;;;;;10437723;28;19925;-89
2021/05/03 19:04:53;;;;;;;;;;;12.60;66.40;;;;;;10456643;28;19925;-89
2021/05/03 19:09:55;;;;;;;;;;;12.50;67.20;;;;;;10456884;28;19925;-89
2021/05/03 19:14:56;;;;;;;;;;;12.50;68.00;;;;;;10457018;28;19961;-89
2021/05/03 19:19:57;;;;;;;;;;;12.40;70.70;;;;;;10492384;22;20389;-90
2021/05/03 19:24:59;;;;;;;;;;;12.40;70.30;;;;;;10626974;27;19953;-90
2021/05/03 19:30:02;;;;;;;;;;;12.30;71.80;;;;;;10603363;27;19923;-90
2021/05/03 19:35:05;;;;;;;;;;;12.30;72.50;;;;;;10609477;27;19923;-90
2021/05/03 19:40:07;;;;;;;;;;;12.20;73.30;;;;;;10606717;27;19930;-90
2021/05/03 19:45:09;;;;;;;;;;;12.10;75.80;;;;;;10605678;27;20361;-90
2021/05/03 19:50:56;;;;;;;;;;;12.00;76.90;;;;;;10608977;27;19924;-90
2021/05/03 20:06:26;;;;;;;;;;;12.00;78.20;;;;;;10612468;27;19930;-90
2021/05/03 20:11:27;;;;;;;;;;;11.80;79.60;;;;;;10597088;27;19924;-90
2021/05/03 20:16:29;;;;;;;;;;;11.80;80.90;;;;;;10563203;28;19923;-90
2021/05/03 20:21:30;;;;;;;;;;;11.80;82.60;;;;;;10580883;28;19924;-89
2021/05/03 20:26:32;;;;;;;;;;;11.80;82.10;;;;;;10606849;27;20015;-90
2021/05/03 20:31:33;;;;;;;;;;;11.70;83.50;;;;;;10605895;27;19972;-91
2021/05/03 20:41:55;;;;;;;;;;;11.60;86.60;;;;;;10608615;27;19937;-90
2021/05/03 20:46:56;;;;;;;;;;;11.70;85.30;;;;;;10623625;27;19923;-90
2021/05/03 20:51:58;;;;;;;;;;;11.60;86.50;;;;;;10659531;28;19939;-90
2021/05/03 20:56:59;;;;;;;;;;;11.60;88.00;;;;;;10588064;28;19988;-89
2021/05/03 21:02:02;;;;;;;;;;;11.80;83.90;;;;;;10588539;28;19923;-89
2021/05/03 21:07:03;;;;;;;;;;;11.70;85.10;;;;;;10606326;28;19923;-89
2021/05/03 21:12:05;;;;;;;;;;;11.70;86.50;;;;;;10606505;28;20301;-90
2021/05/03 21:17:08;;;;;;;;;;;11.70;86.30;;;;;;10614678;28;21334;-89
2021/05/03 21:22:10;;;;;;;;;;;11.60;87.30;;;;;;10606094;28;19927;-90
2021/05/03 21:27:12;;;;;;;;;;;11.50;90.10;;;;;;10605194;28;19930;-90
2021/05/03 21:32:16;;;;;;;;;;;11.60;87.30;;;;;;10610231;28;20297;-90
2021/05/03 21:37:20;;;;;;;;;;;11.60;87.40;;;;;;10618102;28;19927;-90
2021/05/03 21:42:21;;;;;;;;;;;11.60;88.80;;;;;;10624640;28;19930;-90
2021/05/03 21:47:22;;;;;;;;;;;11.50;90.00;;;;;;10592999;27;19946;-90
2021/05/03 21:52:24;;;;;;;;;;;11.40;89.10;;;;;;10597242;27;19923;-91
2021/05/03 21:57:25;;;;;;;;;;;11.60;86.90;;;;;;10613601;27;19930;-90
2021/05/03 22:02:27;;;;;;;;;;;11.60;86.40;;;;;;10613833;27;20018;-91
2021/05/03 22:07:28;;;;;;;;;;;11.40;88.80;;;;;;10612912;27;20331;-91
2021/05/03 22:12:31;;;;;;;;;;;11.50;86.60;;;;;;10613821;27;20014;-91
2021/05/03 22:17:49;;;;;;;;;;;11.50;88.50;;;;;;10613299;27;19924;-91
2021/05/03 22:32:53;;;;;;;;;;;11.60;86.50;;;;;;10622390;27;19923;-90
2021/05/03 22:38:03;;;;;;;;;;;12.30;84.40;;;;;;10617197;27;19975;-91
2021/05/03 22:59:35;;;;;;;;;;;11.60;83.50;;;;;;10586729;28;19923;-90
2021/05/03 23:10:00;;;;;;;;;;;11.70;83.30;;;;;;10613286;27;19924;-91
2021/05/03 23:20:06;;;;;;;;;;;11.80;81.80;;;;;;10628317;27;19931;-90
2021/05/03 23:25:09;;;;;;;;;;;11.90;80.30;;;;;;10627721;27;19927;-91
2021/05/03 23:30:14;;;;;;;;;;;12.00;79.80;;;;;;10600180;27;19927;-90
2021/05/03 23:35:16;;;;;;;;;;;12.10;77.10;;;;;;10627350;27;19973;-90
2021/05/03 23:40:17;;;;;;;;;;;12.10;77.70;;;;;;10607928;27;20366;-90
2021/05/03 23:45:19;;;;;;;;;;;12.10;77.60;;;;;;10627796;27;19923;-90
2021/05/03 23:50:20;;;;;;;;;;;12.10;78.10;;;;;;10609713;27;19972;-90
2021/05/03 23:55:21;;;;;;;;;;;12.10;77.20;;;;;;10608696;27;19960;-89
